sensor_id;sensor_type;location;lat;lon;timestamp;P1;durP1;ratioP1;P2;durP2;ratioP2
58015;SDS011;43809;52.110;20.964;2023-09-12T00:00:28;10.10;;;8.32;;
58015;SDS011;43809;52.110;20.964;2023-09-12T00:02:29;7.57;;;6.78;;
58015;SDS011;43809;52.110;20.964;2023-09-12T00:04:29;17.52;;;13.48;;
58015;SDS011;43809;52.110;20.964;2023-09-12T00:06:30;17.30;;;12.52;;
58015;SDS011;43809;52.110;20.964;2023-09-12T00:08:31;14.77;;;12.80;;
58015;SDS011;43809;52.110;20.964;2023-09-12T00:10:31;14.00;;;11.07;;
58015;SDS011;43809;52.110;20.964;2023-09-12T00:12:33;15.70;;;13.02;;
58015;SDS011;43809;52.110;20.964;2023-09-12T00:14:33;15.10;;;11.85;;
58015;SDS011;43809;52.110;20.964;2023-09-12T00:16:34;16.05;;;10.70;;
58015;SDS011;43809;52.110;20.964;2023-09-12T00:18:35;10.48;;;9.27;;
58015;SDS011;43809;52.110;20.964;2023-09-12T00:20:36;12.88;;;10.50;;
58015;SDS011;43809;52.110;20.964;2023-09-12T00:22:36;12.48;;;10.30;;
58015;SDS011;43809;52.110;20.964;2023-09-12T00:24:37;11.05;;;9.60;;
58015;SDS011;43809;52.110;20.964;2023-09-12T00:26:38;14.52;;;11.95;;
58015;SDS011;43809;52.110;20.964;2023-09-12T00:28:39;16.75;;;13.27;;
58015;SDS011;43809;52.110;20.964;2023-09-12T00:30:40;18.87;;;14.23;;
58015;SDS011;43809;52.110;20.964;2023-09-12T00:32:41;17.23;;;14.15;;
58015;SDS011;43809;52.110;20.964;2023-09-12T00:34:42;16.77;;;13.48;;
58015;SDS011;43809;52.110;20.964;2023-09-12T00:36:43;19.15;;;14.63;;
58015;SDS011;43809;52.110;20.964;2023-09-12T00:38:44;14.93;;;11.52;;
58015;SDS011;43809;52.110;20.964;2023-09-12T00:40:44;11.00;;;9.88;;
58015;SDS011;43809;52.110;20.964;2023-09-12T00:42:45;11.75;;;9.95;;
58015;SDS011;43809;52.110;20.964;2023-09-12T00:44:46;8.52;;;7.53;;
58015;SDS011;43809;52.110;20.964;2023-09-12T00:46:46;9.75;;;8.75;;
58015;SDS011;43809;52.110;20.964;2023-09-12T00:48:48;8.18;;;7.32;;
58015;SDS011;43809;52.110;20.964;2023-09-12T00:50:49;7.43;;;6.18;;
58015;SDS011;43809;52.110;20.964;2023-09-12T00:53:01;8.73;;;7.82;;
58015;SDS011;43809;52.110;20.964;2023-09-12T00:55:02;9.40;;;7.75;;
58015;SDS011;43809;52.110;20.964;2023-09-12T00:57:03;8.85;;;7.32;;
58015;SDS011;43809;52.110;20.964;2023-09-12T00:59:04;17.83;;;10.35;;
58015;SDS011;43809;52.110;20.964;2023-09-12T01:01:05;17.73;;;10.73;;
58015;SDS011;43809;52.110;20.964;2023-09-12T01:03:06;12.88;;;10.00;;
58015;SDS011;43809;52.110;20.964;2023-09-12T01:05:07;11.27;;;7.93;;
58015;SDS011;43809;52.110;20.964;2023-09-12T01:07:08;9.13;;;6.97;;
58015;SDS011;43809;52.110;20.964;2023-09-12T01:09:09;8.65;;;6.60;;
58015;SDS011;43809;52.110;20.964;2023-09-12T01:11:10;8.38;;;5.93;;
58015;SDS011;43809;52.110;20.964;2023-09-12T01:13:11;7.15;;;5.82;;
58015;SDS011;43809;52.110;20.964;2023-09-12T01:15:12;6.37;;;4.83;;
58015;SDS011;43809;52.110;20.964;2023-09-12T01:17:16;7.28;;;5.57;;
58015;SDS011;43809;52.110;20.964;2023-09-12T01:19:17;11.48;;;7.47;;
58015;SDS011;43809;52.110;20.964;2023-09-12T01:30:06;6.60;;;5.63;;
58015;SDS011;43809;52.110;20.964;2023-09-12T01:32:08;16.55;;;10.93;;
58015;SDS011;43809;52.110;20.964;2023-09-12T01:34:12;14.02;;;11.27;;
58015;SDS011;43809;52.110;20.964;2023-09-12T01:36:13;11.80;;;9.95;;
58015;SDS011;43809;52.110;20.964;2023-09-12T01:38:14;10.35;;;8.63;;
58015;SDS011;43809;52.110;20.964;2023-09-12T01:43:25;7.32;;;6.57;;
58015;SDS011;43809;52.110;20.964;2023-09-12T01:45:27;7.55;;;5.93;;
58015;SDS011;43809;52.110;20.964;2023-09-12T01:50:48;7.43;;;6.60;;
58015;SDS011;43809;52.110;20.964;2023-09-12T01:52:52;8.40;;;7.53;;
58015;SDS011;43809;52.110;20.964;2023-09-12T01:57:16;9.38;;;8.25;;
58015;SDS011;43809;52.110;20.964;2023-09-12T01:59:17;12.77;;;10.55;;
58015;SDS011;43809;52.110;20.964;2023-09-12T02:01:18;19.48;;;14.93;;
58015;SDS011;43809;52.110;20.964;2023-09-12T02:06:00;11.20;;;10.00;;
58015;SDS011;43809;52.110;20.964;2023-09-12T02:08:01;10.63;;;8.65;;
58015;SDS011;43809;52.110;20.964;2023-09-12T02:10:02;13.27;;;7.20;;
58015;SDS011;43809;52.110;20.964;2023-09-12T02:12:05;15.02;;;7.57;;
58015;SDS011;43809;52.110;20.964;2023-09-12T02:14:05;16.40;;;9.35;;
58015;SDS011;43809;52.110;20.964;2023-09-12T02:16:06;17.08;;;7.88;;
58015;SDS011;43809;52.110;20.964;2023-09-12T02:18:07;12.43;;;6.78;;
58015;SDS011;43809;52.110;20.964;2023-09-12T02:22:32;9.15;;;6.65;;
58015;SDS011;43809;52.110;20.964;2023-09-12T02:24:36;9.68;;;7.03;;
58015;SDS011;43809;52.110;20.964;2023-09-12T02:26:37;8.48;;;6.55;;
58015;SDS011;43809;52.110;20.964;2023-09-12T02:28:38;7.10;;;5.45;;
58015;SDS011;43809;52.110;20.964;2023-09-12T02:30:38;6.18;;;5.57;;
58015;SDS011;43809;52.110;20.964;2023-09-12T02:35:15;5.75;;;4.28;;
58015;SDS011;43809;52.110;20.964;2023-09-12T02:37:16;6.95;;;5.40;;
58015;SDS011;43809;52.110;20.964;2023-09-12T02:39:16;5.35;;;4.85;;
58015;SDS011;43809;52.110;20.964;2023-09-12T02:41:17;5.57;;;4.97;;
58015;SDS011;43809;52.110;20.964;2023-09-12T02:43:18;5.03;;;4.32;;
58015;SDS011;43809;52.110;20.964;2023-09-12T02:45:19;8.30;;;6.82;;
58015;SDS011;43809;52.110;20.964;2023-09-12T02:47:19;16.48;;;12.50;;
58015;SDS011;43809;52.110;20.964;2023-09-12T02:49:20;13.73;;;11.85;;
58015;SDS011;43809;52.110;20.964;2023-09-12T02:51:21;13.65;;;10.45;;
58015;SDS011;43809;52.110;20.964;2023-09-12T02:53:22;11.50;;;9.93;;
58015;SDS011;43809;52.110;20.964;2023-09-12T02:55:24;9.18;;;7.22;;
58015;SDS011;43809;52.110;20.964;2023-09-12T02:57:25;7.68;;;6.85;;
58015;SDS011;43809;52.110;20.964;2023-09-12T02:59:26;7.15;;;6.28;;
58015;SDS011;43809;52.110;20.964;2023-09-12T03:01:27;5.95;;;5.25;;
58015;SDS011;43809;52.110;20.964;2023-09-12T03:06:40;9.60;;;7.85;;
58015;SDS011;43809;52.110;20.964;2023-09-12T03:08:41;12.05;;;9.70;;
58015;SDS011;43809;52.110;20.964;2023-09-12T03:10:42;10.57;;;9.00;;
58015;SDS011;43809;52.110;20.964;2023-09-12T03:12:43;8.90;;;8.00;;
58015;SDS011;43809;52.110;20.964;2023-09-12T03:14:43;8.85;;;7.85;;
58015;SDS011;43809;52.110;20.964;2023-09-12T03:16:46;8.52;;;6.65;;
58015;SDS011;43809;52.110;20.964;2023-09-12T03:18:47;7.47;;;6.55;;
58015;SDS011;43809;52.110;20.964;2023-09-12T03:20:48;6.65;;;5.72;;
58015;SDS011;43809;52.110;20.964;2023-09-12T03:25:35;6.63;;;5.68;;
58015;SDS011;43809;52.110;20.964;2023-09-12T03:27:36;9.02;;;7.07;;
58015;SDS011;43809;52.110;20.964;2023-09-12T03:29:36;7.63;;;6.28;;
58015;SDS011;43809;52.110;20.964;2023-09-12T03:31:37;6.68;;;5.97;;
58015;SDS011;43809;52.110;20.964;2023-09-12T03:33:38;7.57;;;6.55;;
58015;SDS011;43809;52.110;20.964;2023-09-12T03:35:39;9.40;;;8.07;;
58015;SDS011;43809;52.110;20.964;2023-09-12T03:37:40;9.27;;;8.07;;
58015;SDS011;43809;52.110;20.964;2023-09-12T03:39:43;7.97;;;7.00;;
58015;SDS011;43809;52.110;20.964;2023-09-12T03:41:44;10.60;;;8.88;;
58015;SDS011;43809;52.110;20.964;2023-09-12T03:43:44;13.70;;;11.57;;
58015;SDS011;43809;52.110;20.964;2023-09-12T03:45:45;15.15;;;12.15;;
58015;SDS011;43809;52.110;20.964;2023-09-12T03:47:51;19.48;;;14.68;;
58015;SDS011;43809;52.110;20.964;2023-09-12T03:49:55;18.48;;;14.85;;
58015;SDS011;43809;52.110;20.964;2023-09-12T03:52:03;18.10;;;15.57;;
58015;SDS011;43809;52.110;20.964;2023-09-12T03:54:04;18.23;;;15.20;;
58015;SDS011;43809;52.110;20.964;2023-09-12T03:56:08;20.13;;;15.25;;
58015;SDS011;43809;52.110;20.964;2023-09-12T03:58:12;19.83;;;15.82;;
58015;SDS011;43809;52.110;20.964;2023-09-12T04:00:13;19.80;;;15.55;;
58015;SDS011;43809;52.110;20.964;2023-09-12T04:02:17;19.20;;;15.35;;
58015;SDS011;43809;52.110;20.964;2023-09-12T04:04:18;17.20;;;13.70;;
58015;SDS011;43809;52.110;20.964;2023-09-12T04:06:19;11.98;;;10.57;;
58015;SDS011;43809;52.110;20.964;2023-09-12T04:10:49;17.45;;;13.02;;
58015;SDS011;43809;52.110;20.964;2023-09-12T04:12:58;13.98;;;10.73;;
58015;SDS011;43809;52.110;20.964;2023-09-12T04:14:58;13.13;;;10.70;;
58015;SDS011;43809;52.110;20.964;2023-09-12T04:17:02;13.30;;;10.10;;
58015;SDS011;43809;52.110;20.964;2023-09-12T04:19:04;12.40;;;9.05;;
58015;SDS011;43809;52.110;20.964;2023-09-12T04:21:05;16.45;;;10.27;;
58015;SDS011;43809;52.110;20.964;2023-09-12T04:23:06;13.48;;;9.85;;
58015;SDS011;43809;52.110;20.964;2023-09-12T04:25:21;12.35;;;10.23;;
58015;SDS011;43809;52.110;20.964;2023-09-12T04:27:22;13.48;;;11.13;;
58015;SDS011;43809;52.110;20.964;2023-09-12T04:29:23;15.57;;;12.75;;
58015;SDS011;43809;52.110;20.964;2023-09-12T04:31:32;19.60;;;13.02;;
58015;SDS011;43809;52.110;20.964;2023-09-12T04:36:15;16.63;;;12.32;;
58015;SDS011;43809;52.110;20.964;2023-09-12T04:38:24;19.15;;;14.80;;
58015;SDS011;43809;52.110;20.964;2023-09-12T04:40:26;19.75;;;15.93;;
58015;SDS011;43809;52.110;20.964;2023-09-12T04:42:29;21.50;;;16.17;;
58015;SDS011;43809;52.110;20.964;2023-09-12T04:44:35;23.75;;;17.60;;
58015;SDS011;43809;52.110;20.964;2023-09-12T04:46:42;23.25;;;18.60;;
58015;SDS011;43809;52.110;20.964;2023-09-12T04:49:04;23.35;;;16.73;;
58015;SDS011;43809;52.110;20.964;2023-09-12T04:51:05;21.55;;;17.27;;
58015;SDS011;43809;52.110;20.964;2023-09-12T04:53:06;21.77;;;17.52;;
58015;SDS011;43809;52.110;20.964;2023-09-12T04:55:07;22.17;;;17.02;;
58015;SDS011;43809;52.110;20.964;2023-09-12T04:57:08;29.77;;;19.08;;
58015;SDS011;43809;52.110;20.964;2023-09-12T04:59:09;21.52;;;16.75;;
58015;SDS011;43809;52.110;20.964;2023-09-12T05:03:54;23.60;;;18.27;;
58015;SDS011;43809;52.110;20.964;2023-09-12T05:05:57;25.02;;;17.42;;
58015;SDS011;43809;52.110;20.964;2023-09-12T05:07:59;25.60;;;19.30;;
58015;SDS011;43809;52.110;20.964;2023-09-12T05:10:00;25.02;;;19.23;;
58015;SDS011;43809;52.110;20.964;2023-09-12T05:12:01;25.70;;;20.65;;
58015;SDS011;43809;52.110;20.964;2023-09-12T05:14:01;21.63;;;18.33;;
58015;SDS011;43809;52.110;20.964;2023-09-12T05:18:08;21.25;;;16.55;;
58015;SDS011;43809;52.110;20.964;2023-09-12T05:20:10;23.38;;;15.02;;
58015;SDS011;43809;52.110;20.964;2023-09-12T05:22:11;14.63;;;12.65;;
58015;SDS011;43809;52.110;20.964;2023-09-12T05:24:25;18.73;;;13.50;;
58015;SDS011;43809;52.110;20.964;2023-09-12T05:26:25;18.52;;;11.90;;
58015;SDS011;43809;52.110;20.964;2023-09-12T05:28:26;13.02;;;10.80;;
58015;SDS011;43809;52.110;20.964;2023-09-12T05:30:27;12.52;;;10.05;;
58015;SDS011;43809;52.110;20.964;2023-09-12T05:35:07;23.58;;;14.88;;
58015;SDS011;43809;52.110;20.964;2023-09-12T05:37:07;18.30;;;14.00;;
58015;SDS011;43809;52.110;20.964;2023-09-12T05:39:08;20.23;;;14.50;;
58015;SDS011;43809;52.110;20.964;2023-09-12T05:41:09;16.92;;;14.20;;
58015;SDS011;43809;52.110;20.964;2023-09-12T05:43:10;27.08;;;17.65;;
58015;SDS011;43809;52.110;20.964;2023-09-12T05:47:33;22.63;;;14.43;;
58015;SDS011;43809;52.110;20.964;2023-09-12T05:49:34;15.80;;;13.52;;
58015;SDS011;43809;52.110;20.964;2023-09-12T05:51:35;16.05;;;13.45;;
58015;SDS011;43809;52.110;20.964;2023-09-12T05:53:37;22.85;;;18.27;;
58015;SDS011;43809;52.110;20.964;2023-09-12T05:55:37;24.92;;;18.88;;
58015;SDS011;43809;52.110;20.964;2023-09-12T05:57:41;21.63;;;16.58;;
58015;SDS011;43809;52.110;20.964;2023-09-12T05:59:42;21.27;;;13.93;;
58015;SDS011;43809;52.110;20.964;2023-09-12T06:01:52;22.50;;;13.15;;
58015;SDS011;43809;52.110;20.964;2023-09-12T06:03:53;21.52;;;11.63;;
58015;SDS011;43809;52.110;20.964;2023-09-12T06:05:54;24.45;;;12.57;;
58015;SDS011;43809;52.110;20.964;2023-09-12T06:07:57;15.50;;;10.15;;
58015;SDS011;43809;52.110;20.964;2023-09-12T06:10:03;14.45;;;11.98;;
58015;SDS011;43809;52.110;20.964;2023-09-12T06:12:04;14.18;;;12.20;;
58015;SDS011;43809;52.110;20.964;2023-09-12T06:14:05;15.70;;;11.25;;
58015;SDS011;43809;52.110;20.964;2023-09-12T06:16:06;17.40;;;12.98;;
58015;SDS011;43809;52.110;20.964;2023-09-12T06:18:20;17.50;;;14.52;;
58015;SDS011;43809;52.110;20.964;2023-09-12T06:20:20;18.50;;;12.43;;
58015;SDS011;43809;52.110;20.964;2023-09-12T06:22:23;17.67;;;12.75;;
58015;SDS011;43809;52.110;20.964;2023-09-12T06:24:25;10.95;;;9.85;;
58015;SDS011;43809;52.110;20.964;2023-09-12T06:26:26;12.32;;;9.38;;
58015;SDS011;43809;52.110;20.964;2023-09-12T06:28:27;15.40;;;10.48;;
58015;SDS011;43809;52.110;20.964;2023-09-12T06:30:28;11.80;;;9.25;;
58015;SDS011;43809;52.110;20.964;2023-09-12T06:32:30;8.45;;;7.07;;
58015;SDS011;43809;52.110;20.964;2023-09-12T06:34:30;9.98;;;7.57;;
58015;SDS011;43809;52.110;20.964;2023-09-12T06:36:31;10.07;;;8.10;;
58015;SDS011;43809;52.110;20.964;2023-09-12T06:38:32;9.80;;;7.70;;
58015;SDS011;43809;52.110;20.964;2023-09-12T06:40:33;8.65;;;7.65;;
58015;SDS011;43809;52.110;20.964;2023-09-12T06:42:33;11.13;;;8.45;;
58015;SDS011;43809;52.110;20.964;2023-09-12T06:44:34;8.85;;;7.30;;
58015;SDS011;43809;52.110;20.964;2023-09-12T06:46:35;11.60;;;8.07;;
58015;SDS011;43809;52.110;20.964;2023-09-12T06:48:37;11.35;;;8.93;;
58015;SDS011;43809;52.110;20.964;2023-09-12T06:50:38;13.13;;;9.30;;
58015;SDS011;43809;52.110;20.964;2023-09-12T06:52:39;12.13;;;8.67;;
58015;SDS011;43809;52.110;20.964;2023-09-12T06:54:40;14.27;;;10.20;;
58015;SDS011;43809;52.110;20.964;2023-09-12T06:56:40;14.38;;;8.98;;
58015;SDS011;43809;52.110;20.964;2023-09-12T06:58:43;10.77;;;8.70;;
58015;SDS011;43809;52.110;20.964;2023-09-12T07:00:44;11.63;;;8.98;;
58015;SDS011;43809;52.110;20.964;2023-09-12T07:02:44;16.73;;;10.15;;
58015;SDS011;43809;52.110;20.964;2023-09-12T07:04:45;23.05;;;10.88;;
58015;SDS011;43809;52.110;20.964;2023-09-12T07:06:46;16.30;;;8.75;;
58015;SDS011;43809;52.110;20.964;2023-09-12T07:08:46;11.02;;;8.32;;
58015;SDS011;43809;52.110;20.964;2023-09-12T07:10:48;33.90;;;11.45;;
58015;SDS011;43809;52.110;20.964;2023-09-12T07:12:49;16.00;;;11.27;;
58015;SDS011;43809;52.110;20.964;2023-09-12T07:14:49;11.00;;;8.32;;
58015;SDS011;43809;52.110;20.964;2023-09-12T07:16:52;7.28;;;6.57;;
58015;SDS011;43809;52.110;20.964;2023-09-12T07:18:52;12.25;;;10.07;;
58015;SDS011;43809;52.110;20.964;2023-09-12T07:20:59;8.98;;;8.07;;
58015;SDS011;43809;52.110;20.964;2023-09-12T07:23:00;9.35;;;7.45;;
58015;SDS011;43809;52.110;20.964;2023-09-12T07:25:01;11.30;;;7.57;;
58015;SDS011;43809;52.110;20.964;2023-09-12T07:27:02;8.27;;;7.35;;
58015;SDS011;43809;52.110;20.964;2023-09-12T07:29:03;8.80;;;6.90;;
58015;SDS011;43809;52.110;20.964;2023-09-12T07:31:05;8.85;;;6.32;;
58015;SDS011;43809;52.110;20.964;2023-09-12T07:33:06;11.23;;;9.40;;
58015;SDS011;43809;52.110;20.964;2023-09-12T07:35:07;12.40;;;9.98;;
58015;SDS011;43809;52.110;20.964;2023-09-12T07:37:08;10.68;;;9.60;;
58015;SDS011;43809;52.110;20.964;2023-09-12T07:39:08;11.80;;;8.77;;
58015;SDS011;43809;52.110;20.964;2023-09-12T07:41:09;8.17;;;7.47;;
58015;SDS011;43809;52.110;20.964;2023-09-12T07:43:10;12.32;;;10.43;;
58015;SDS011;43809;52.110;20.964;2023-09-12T07:47:37;11.07;;;9.10;;
58015;SDS011;43809;52.110;20.964;2023-09-12T07:49:38;13.60;;;9.40;;
58015;SDS011;43809;52.110;20.964;2023-09-12T07:51:38;8.80;;;7.90;;
58015;SDS011;43809;52.110;20.964;2023-09-12T07:53:40;7.15;;;6.45;;
58015;SDS011;43809;52.110;20.964;2023-09-12T07:55:40;8.90;;;5.80;;
58015;SDS011;43809;52.110;20.964;2023-09-12T07:57:46;9.73;;;7.60;;
58015;SDS011;43809;52.110;20.964;2023-09-12T07:59:46;9.77;;;8.32;;
58015;SDS011;43809;52.110;20.964;2023-09-12T08:01:47;8.07;;;6.95;;
58015;SDS011;43809;52.110;20.964;2023-09-12T08:03:48;7.20;;;6.50;;
58015;SDS011;43809;52.110;20.964;2023-09-12T08:05:57;11.77;;;6.45;;
58015;SDS011;43809;52.110;20.964;2023-09-12T08:07:58;14.25;;;8.60;;
58015;SDS011;43809;52.110;20.964;2023-09-12T08:09:59;9.57;;;7.93;;
58015;SDS011;43809;52.110;20.964;2023-09-12T08:11:59;7.30;;;6.45;;
58015;SDS011;43809;52.110;20.964;2023-09-12T08:14:00;18.33;;;9.32;;
58015;SDS011;43809;52.110;20.964;2023-09-12T08:16:01;11.40;;;8.73;;
58015;SDS011;43809;52.110;20.964;2023-09-12T08:18:01;10.45;;;8.82;;
58015;SDS011;43809;52.110;20.964;2023-09-12T08:20:02;7.57;;;6.88;;
58015;SDS011;43809;52.110;20.964;2023-09-12T08:22:04;6.18;;;5.68;;
58015;SDS011;43809;52.110;20.964;2023-09-12T08:24:05;7.07;;;6.47;;
58015;SDS011;43809;52.110;20.964;2023-09-12T08:26:06;7.85;;;5.40;;
58015;SDS011;43809;52.110;20.964;2023-09-12T08:28:07;11.17;;;7.60;;
58015;SDS011;43809;52.110;20.964;2023-09-12T08:30:08;10.65;;;8.70;;
58015;SDS011;43809;52.110;20.964;2023-09-12T08:32:09;9.43;;;8.30;;
58015;SDS011;43809;52.110;20.964;2023-09-12T08:34:10;8.77;;;7.45;;
58015;SDS011;43809;52.110;20.964;2023-09-12T08:36:10;8.57;;;7.43;;
58015;SDS011;43809;52.110;20.964;2023-09-12T08:38:11;6.70;;;5.93;;
58015;SDS011;43809;52.110;20.964;2023-09-12T08:42:24;9.75;;;8.75;;
58015;SDS011;43809;52.110;20.964;2023-09-12T08:44:27;8.07;;;6.82;;
58015;SDS011;43809;52.110;20.964;2023-09-12T08:46:30;12.57;;;8.50;;
58015;SDS011;43809;52.110;20.964;2023-09-12T08:48:31;6.35;;;5.75;;
58015;SDS011;43809;52.110;20.964;2023-09-12T08:50:32;5.35;;;4.85;;
58015;SDS011;43809;52.110;20.964;2023-09-12T08:52:34;8.73;;;7.65;;
58015;SDS011;43809;52.110;20.964;2023-09-12T08:54:35;10.23;;;8.40;;
58015;SDS011;43809;52.110;20.964;2023-09-12T08:56:37;8.43;;;7.63;;
58015;SDS011;43809;52.110;20.964;2023-09-12T08:58:39;11.60;;;8.52;;
58015;SDS011;43809;52.110;20.964;2023-09-12T09:00:40;6.87;;;6.27;;
58015;SDS011;43809;52.110;20.964;2023-09-12T09:08:44;9.55;;;8.05;;
58015;SDS011;43809;52.110;20.964;2023-09-12T09:10:55;9.20;;;8.30;;
58015;SDS011;43809;52.110;20.964;2023-09-12T09:12:56;9.70;;;7.78;;
58015;SDS011;43809;52.110;20.964;2023-09-12T09:17:36;8.00;;;7.30;;
58015;SDS011;43809;52.110;20.964;2023-09-12T09:19:40;7.30;;;6.60;;
58015;SDS011;43809;52.110;20.964;2023-09-12T09:21:42;10.30;;;7.57;;
58015;SDS011;43809;52.110;20.964;2023-09-12T09:23:47;9.50;;;8.43;;
58015;SDS011;43809;52.110;20.964;2023-09-12T09:25:51;10.02;;;7.45;;
58015;SDS011;43809;52.110;20.964;2023-09-12T09:27:52;9.20;;;8.30;;
58015;SDS011;43809;52.110;20.964;2023-09-12T09:29:53;9.30;;;8.50;;
58015;SDS011;43809;52.110;20.964;2023-09-12T09:31:53;8.40;;;7.53;;
58015;SDS011;43809;52.110;20.964;2023-09-12T09:33:56;6.40;;;5.80;;
58015;SDS011;43809;52.110;20.964;2023-09-12T09:36:02;13.02;;;8.48;;
58015;SDS011;43809;52.110;20.964;2023-09-12T09:38:06;9.80;;;8.80;;
58015;SDS011;43809;52.110;20.964;2023-09-12T09:40:07;9.95;;;8.82;;
58015;SDS011;43809;52.110;20.964;2023-09-12T09:42:10;10.57;;;8.55;;
58015;SDS011;43809;52.110;20.964;2023-09-12T09:44:11;9.32;;;8.40;;
58015;SDS011;43809;52.110;20.964;2023-09-12T09:46:15;9.82;;;8.82;;
58015;SDS011;43809;52.110;20.964;2023-09-12T09:48:22;7.35;;;6.75;;
58015;SDS011;43809;52.110;20.964;2023-09-12T09:50:23;11.55;;;7.50;;
58015;SDS011;43809;52.110;20.964;2023-09-12T09:52:25;9.57;;;7.07;;
58015;SDS011;43809;52.110;20.964;2023-09-12T09:54:29;10.57;;;9.05;;
58015;SDS011;43809;52.110;20.964;2023-09-12T09:56:56;9.85;;;8.85;;
58015;SDS011;43809;52.110;20.964;2023-09-12T09:58:56;7.70;;;6.75;;
58015;SDS011;43809;52.110;20.964;2023-09-12T10:00:57;9.40;;;8.50;;
58015;SDS011;43809;52.110;20.964;2023-09-12T10:02:57;12.47;;;9.03;;
58015;SDS011;43809;52.110;20.964;2023-09-12T10:05:00;8.68;;;7.88;;
58015;SDS011;43809;52.110;20.964;2023-09-12T10:07:05;9.90;;;8.95;;
58015;SDS011;43809;52.110;20.964;2023-09-12T10:09:07;13.87;;;8.57;;
58015;SDS011;43809;52.110;20.964;2023-09-12T10:11:09;9.70;;;8.75;;
58015;SDS011;43809;52.110;20.964;2023-09-12T10:13:14;8.73;;;7.90;;
58015;SDS011;43809;52.110;20.964;2023-09-12T10:15:17;6.60;;;6.00;;
58015;SDS011;43809;52.110;20.964;2023-09-12T10:17:19;46.85;;;14.20;;
58015;SDS011;43809;52.110;20.964;2023-09-12T10:19:25;10.18;;;9.13;;
58015;SDS011;43809;52.110;20.964;2023-09-12T10:21:29;10.02;;;8.43;;
58015;SDS011;43809;52.110;20.964;2023-09-12T10:25:58;10.80;;;9.68;;
58015;SDS011;43809;52.110;20.964;2023-09-12T10:27:59;9.13;;;8.23;;
58015;SDS011;43809;52.110;20.964;2023-09-12T10:32:23;9.77;;;8.88;;
58015;SDS011;43809;52.110;20.964;2023-09-12T10:34:27;9.80;;;8.90;;
58015;SDS011;43809;52.110;20.964;2023-09-12T10:38:52;8.48;;;7.07;;
58015;SDS011;43809;52.110;20.964;2023-09-12T10:40:53;6.80;;;6.20;;
58015;SDS011;43809;52.110;20.964;2023-09-12T10:42:55;6.20;;;5.60;;
58015;SDS011;43809;52.110;20.964;2023-09-12T10:44:56;9.35;;;8.27;;
58015;SDS011;43809;52.110;20.964;2023-09-12T10:46:58;10.65;;;9.65;;
58015;SDS011;43809;52.110;20.964;2023-09-12T10:48:59;22.27;;;11.00;;
58015;SDS011;43809;52.110;20.964;2023-09-12T10:51:00;11.13;;;9.93;;
58015;SDS011;43809;52.110;20.964;2023-09-12T10:53:14;18.63;;;10.67;;
58015;SDS011;43809;52.110;20.964;2023-09-12T10:55:15;12.45;;;9.88;;
58015;SDS011;43809;52.110;20.964;2023-09-12T10:57:19;11.23;;;10.00;;
58015;SDS011;43809;52.110;20.964;2023-09-12T10:59:20;10.40;;;9.40;;
58015;SDS011;43809;52.110;20.964;2023-09-12T11:01:25;10.05;;;8.73;;
58015;SDS011;43809;52.110;20.964;2023-09-12T11:07:58;10.10;;;9.05;;
58015;SDS011;43809;52.110;20.964;2023-09-12T11:12:33;10.05;;;9.07;;
58015;SDS011;43809;52.110;20.964;2023-09-12T11:14:34;9.85;;;8.95;;
58015;SDS011;43809;52.110;20.964;2023-09-12T11:16:35;10.17;;;9.27;;
58015;SDS011;43809;52.110;20.964;2023-09-12T11:21:00;6.88;;;6.28;;
58015;SDS011;43809;52.110;20.964;2023-09-12T11:23:09;9.77;;;8.65;;
58015;SDS011;43809;52.110;20.964;2023-09-12T11:27:25;39.67;;;12.88;;
58015;SDS011;43809;52.110;20.964;2023-09-12T11:29:35;11.48;;;10.38;;
58015;SDS011;43809;52.110;20.964;2023-09-12T11:31:36;13.38;;;10.45;;
58015;SDS011;43809;52.110;20.964;2023-09-12T11:33:42;11.43;;;10.23;;
58015;SDS011;43809;52.110;20.964;2023-09-12T11:41:14;12.32;;;9.23;;
58015;SDS011;43809;52.110;20.964;2023-09-12T11:43:25;10.73;;;9.40;;
58015;SDS011;43809;52.110;20.964;2023-09-12T11:45:25;13.27;;;9.98;;
58015;SDS011;43809;52.110;20.964;2023-09-12T11:47:43;10.77;;;9.67;;
58015;SDS011;43809;52.110;20.964;2023-09-12T11:49:44;15.20;;;9.05;;
58015;SDS011;43809;52.110;20.964;2023-09-12T11:51:52;15.32;;;8.15;;
58015;SDS011;43809;52.110;20.964;2023-09-12T11:53:53;11.05;;;9.98;;
58015;SDS011;43809;52.110;20.964;2023-09-12T11:56:01;13.10;;;10.38;;
58015;SDS011;43809;52.110;20.964;2023-09-12T11:58:02;15.50;;;10.40;;
58015;SDS011;43809;52.110;20.964;2023-09-12T12:00:03;19.75;;;11.25;;
58015;SDS011;43809;52.110;20.964;2023-09-12T12:02:13;12.48;;;8.80;;
58015;SDS011;43809;52.110;20.964;2023-09-12T12:04:14;13.48;;;10.15;;
58015;SDS011;43809;52.110;20.964;2023-09-12T12:06:15;10.27;;;9.27;;
58015;SDS011;43809;52.110;20.964;2023-09-12T12:08:16;7.47;;;6.77;;
58015;SDS011;43809;52.110;20.964;2023-09-12T12:10:17;7.97;;;7.18;;
58015;SDS011;43809;52.110;20.964;2023-09-12T12:12:18;12.37;;;8.00;;
58015;SDS011;43809;52.110;20.964;2023-09-12T12:14:18;18.23;;;11.03;;
58015;SDS011;43809;52.110;20.964;2023-09-12T12:16:20;10.45;;;9.45;;
58015;SDS011;43809;52.110;20.964;2023-09-12T12:18:20;8.83;;;8.03;;
58015;SDS011;43809;52.110;20.964;2023-09-12T12:20:38;7.80;;;7.10;;
58015;SDS011;43809;52.110;20.964;2023-09-12T12:22:39;14.90;;;8.35;;
58015;SDS011;43809;52.110;20.964;2023-09-12T12:24:46;14.77;;;10.27;;
58015;SDS011;43809;52.110;20.964;2023-09-12T12:26:47;11.57;;;10.20;;
58015;SDS011;43809;52.110;20.964;2023-09-12T12:28:51;9.70;;;8.57;;
58015;SDS011;43809;52.110;20.964;2023-09-12T12:30:52;19.98;;;10.73;;
58015;SDS011;43809;52.110;20.964;2023-09-12T12:33:00;19.30;;;9.82;;
58015;SDS011;43809;52.110;20.964;2023-09-12T12:35:01;12.38;;;9.95;;
58015;SDS011;43809;52.110;20.964;2023-09-12T12:37:03;13.85;;;9.73;;
58015;SDS011;43809;52.110;20.964;2023-09-12T12:39:04;10.47;;;9.40;;
58015;SDS011;43809;52.110;20.964;2023-09-12T12:41:05;9.75;;;8.35;;
58015;SDS011;43809;52.110;20.964;2023-09-12T12:43:05;7.27;;;6.53;;
58015;SDS011;43809;52.110;20.964;2023-09-12T12:53:17;6.88;;;5.15;;
58015;SDS011;43809;52.110;20.964;2023-09-12T12:55:33;5.37;;;4.70;;
58015;SDS011;43809;52.110;20.964;2023-09-12T12:57:36;4.95;;;4.55;;
58015;SDS011;43809;52.110;20.964;2023-09-12T12:59:37;5.93;;;4.90;;
58015;SDS011;43809;52.110;20.964;2023-09-12T13:01:38;4.60;;;4.20;;
58015;SDS011;43809;52.110;20.964;2023-09-12T13:03:40;4.20;;;3.80;;
58015;SDS011;43809;52.110;20.964;2023-09-12T13:05:40;4.27;;;3.87;;
58015;SDS011;43809;52.110;20.964;2023-09-12T13:10:52;6.65;;;4.28;;
58015;SDS011;43809;52.110;20.964;2023-09-12T13:12:56;9.97;;;4.10;;
58015;SDS011;43809;52.110;20.964;2023-09-12T13:14:57;7.00;;;4.70;;
58015;SDS011;43809;52.110;20.964;2023-09-12T13:16:58;5.87;;;5.37;;
58015;SDS011;43809;52.110;20.964;2023-09-12T13:18:59;5.23;;;4.73;;
58015;SDS011;43809;52.110;20.964;2023-09-12T13:20:59;5.38;;;4.55;;
58015;SDS011;43809;52.110;20.964;2023-09-12T13:25:10;5.80;;;3.40;;
58015;SDS011;43809;52.110;20.964;2023-09-12T13:27:31;13.45;;;6.75;;
58015;SDS011;43809;52.110;20.964;2023-09-12T13:29:32;7.45;;;6.28;;
58015;SDS011;43809;52.110;20.964;2023-09-12T13:31:33;13.20;;;9.38;;
58015;SDS011;43809;52.110;20.964;2023-09-12T13:33:34;8.70;;;7.00;;